Time,TemperatureF,DewpointF,PressureIn,WindDirection,WindDirectionDegrees,WindSpeedMPH,WindSpeedGustMPH,Humidity,HourlyPrecipIn,Conditions,Clouds,dailyrainin,SoftwareType,DateUTC
2013-01-30 00:00:00,46.6,42.2,29.62,South,180,2.2,2.7,84,0.00,,,0.00,VWS V14.01,2013-01-30 06:00:00,
2013-01-30 00:01:00,46.6,42.2,29.62,South,180,0.0,2.2,84,0.00,,,0.00,VWS V14.01,2013-01-30 06:01:00,
2013-01-30 00:02:00,46.6,42.2,29.62,South,180,0.0,0.0,84,0.00,,,0.00,VWS V14.01,2013-01-30 06:02:00,
2013-01-30 00:03:00,46.6,42.2,29.62,South,180,0.0,0.0,84,0.00,,,0.00,VWS V14.01,2013-01-30 06:03:00,
2013-01-30 00:04:00,46.6,42.2,29.62,South,180,0.0,0.0,84,0.00,,,0.00,VWS V14.01,2013-01-30 06:04:00,
2013-01-30 00:05:00,46.6,42.2,29.62,South,180,2.2,2.2,84,0.00,,,0.00,VWS V14.01,2013-01-30 06:05:00,
2013-01-30 00:06:00,46.6,42.2,29.62,South,180,0.0,2.7,84,0.00,,,0.00,VWS V14.01,2013-01-30 06:06:00,
2013-01-30 00:07:00,46.6,42.2,29.62,South,180,0.0,0.0,84,0.00,,,0.00,VWS V14.01,2013-01-30 06:07:00,
2013-01-30 00:08:00,46.6,42.2,29.62,South,180,0.0,0.0,84,0.00,,,0.00,VWS V14.01,2013-01-30 06:08:00,
2013-01-30 00:09:00,46.6,42.2,29.62,South,180,0.0,0.0,84,0.00,,,0.00,VWS V14.01,2013-01-30 06:09:00,
2013-01-30 00:10:00,46.6,42.2,29.62,South,180,0.0,0.0,84,0.00,,,0.00,VWS V14.01,2013-01-30 06:10:00,
2013-01-30 00:11:00,46.6,42.2,29.62,South,180,0.0,0.0,84,0.00,,,0.00,VWS V14.01,2013-01-30 06:11:00,
2013-01-30 00:12:00,46.6,42.2,29.62,South,180,0.0,0.0,84,0.00,,,0.00,VWS V14.01,2013-01-30 06:12:00,
2013-01-30 00:13:00,46.6,42.2,29.62,NE,45,12.3,12.3,84,0.00,,,0.00,VWS V14.01,2013-01-30 06:13:00,
2013-01-30 00:14:00,46.8,42.4,29.62,NE,45,11.4,12.3,84,0.00,,,0.00,VWS V14.01,2013-01-30 06:14:00,
2013-01-30 00:15:00,46.8,42.4,29.62,NE,45,8.1,14.1,84,0.00,,,0.00,VWS V14.01,2013-01-30 06:15:00,
2013-01-30 00:16:00,46.8,42.4,29.62,NE,45,10.5,11.4,84,0.00,,,0.00,VWS V14.01,2013-01-30 06:16:00,
2013-01-30 00:17:00,46.8,42.4,29.62,NE,45,12.3,12.3,84,0.00,,,0.00,VWS V14.01,2013-01-30 06:17:00,
2013-01-30 00:18:00,47.0,42.6,29.62,NE,45,9.2,10.5,84,0.00,,,0.00,VWS V14.01,2013-01-30 06:18:00,
2013-01-30 00:19:00,47.0,42.6,29.62,NE,45,8.1,10.5,84,0.00,,,0.00,VWS V14.01,2013-01-30 06:19:00,
2013-01-30 00:20:00,47.0,42.6,29.62,NE,45,14.1,14.1,84,0.00,,,0.00,VWS V14.01,2013-01-30 06:20:00,
2013-01-30 00:21:00,47.0,42.6,29.62,NE,45,12.3,14.1,84,0.00,,,0.00,VWS V14.01,2013-01-30 06:21:00,
2013-01-30 00:22:00,47.0,42.6,29.62,NE,45,11.0,14.5,84,0.00,,,0.00,VWS V14.01,2013-01-30 06:22:00,
2013-01-30 00:23:00,46.8,42.4,29.62,NE,45,11.0,12.8,84,0.00,,,0.00,VWS V14.01,2013-01-30 06:23:00,
2013-01-30 00:24:00,46.8,42.4,29.62,NE,45,8.7,12.8,84,0.00,,,0.00,VWS V14.01,2013-01-30 06:24:00,
2013-01-30 00:25:00,46.8,42.4,29.62,NE,45,6.3,8.7,84,0.00,,,0.00,VWS V14.01,2013-01-30 06:25:00,
2013-01-30 00:26:00,46.6,42.2,29.62,NE,45,6.3,13.2,84,0.00,,,0.00,VWS V14.01,2013-01-30 06:26:00,
2013-01-30 00:28:00,46.6,42.2,29.62,NE,45,5.4,8.1,84,0.00,,,0.00,VWS V14.01,2013-01-30 06:28:00,
2013-01-30 00:29:00,46.6,42.2,29.62,NE,45,11.0,11.0,84,0.00,,,0.00,VWS V14.01,2013-01-30 06:29:00,
2013-01-30 00:30:00,46.6,42.2,29.62,NE,45,5.4,11.0,84,0.00,,,0.00,VWS V14.01,2013-01-30 06:30:00,
2013-01-30 00:31:00,46.6,42.2,29.62,NE,45,7.6,7.6,84,0.00,,,0.00,VWS V14.01,2013-01-30 06:31:00,
2013-01-30 00:32:00,46.6,42.2,29.62,NE,45,10.5,10.5,84,0.00,,,0.00,VWS V14.01,2013-01-30 06:32:00,
2013-01-30 00:33:00,46.6,42.2,29.62,NE,45,15.4,15.4,84,0.00,,,0.00,VWS V14.01,2013-01-30 06:33:00,
2013-01-30 00:34:00,46.4,42.0,29.62,NE,45,8.1,15.4,84,0.00,,,0.00,VWS V14.01,2013-01-30 06:34:00,
2013-01-30 00:35:00,46.4,42.0,29.62,NE,45,13.6,13.6,84,0.00,,,0.00,VWS V14.01,2013-01-30 06:35:00,
2013-01-30 00:36:00,46.4,42.0,29.62,NE,45,8.3,13.6,84,0.00,,,0.00,VWS V14.01,2013-01-30 06:36:00,
2013-01-30 00:37:00,46.3,41.8,29.62,NE,45,11.0,12.8,84,0.00,,,0.00,VWS V14.01,2013-01-30 06:37:00,
2013-01-30 00:38:00,46.3,41.8,29.62,NE,45,9.6,11.4,84,0.00,,,0.00,VWS V14.01,2013-01-30 06:38:00,
2013-01-30 00:39:00,46.3,41.8,29.62,NE,45,10.1,11.4,84,0.00,,,0.00,VWS V14.01,2013-01-30 06:39:00,
2013-01-30 00:40:00,46.3,41.8,29.62,NE,45,8.3,10.1,84,0.00,,,0.00,VWS V14.01,2013-01-30 06:40:00,
2013-01-30 00:41:00,46.3,41.8,29.62,NE,45,9.2,13.6,84,0.00,,,0.00,VWS V14.01,2013-01-30 06:41:00,
2013-01-30 00:42:00,46.3,41.8,29.62,NE,45,8.3,10.1,84,0.00,,,0.00,VWS V14.01,2013-01-30 06:42:00,
2013-01-30 00:43:00,46.1,41.7,29.62,NE,45,12.3,12.3,84,0.00,,,0.00,VWS V14.01,2013-01-30 06:43:00,
2013-01-30 00:44:00,46.1,41.7,29.62,NE,45,10.1,12.3,84,0.00,,,0.00,VWS V14.01,2013-01-30 06:44:00,
2013-01-30 00:45:00,46.1,41.7,29.62,North,0,11.0,11.0,84,0.00,,,0.00,VWS V14.01,2013-01-30 06:45:00,
2013-01-30 00:47:00,46.1,41.7,29.62,NE,45,10.1,11.0,84,0.00,,,0.00,VWS V14.01,2013-01-30 06:47:00,
2013-01-30 00:48:00,45.9,41.5,29.62,NNE,22,7.6,12.3,84,0.00,,,0.00,VWS V14.01,2013-01-30 06:48:00,
2013-01-30 00:49:00,45.9,41.5,29.62,NE,45,10.5,13.2,84,0.00,,,0.00,VWS V14.01,2013-01-30 06:49:00,
2013-01-30 00:50:00,45.7,41.3,29.62,NE,45,15.9,15.9,84,0.00,,,0.00,VWS V14.01,2013-01-30 06:50:00,
2013-01-30 00:51:00,45.7,41.3,29.62,NE,45,9.2,15.9,84,0.00,,,0.00,VWS V14.01,2013-01-30 06:51:00,
2013-01-30 00:52:00,45.7,41.3,29.62,NE,45,9.6,13.2,84,0.00,,,0.00,VWS V14.01,2013-01-30 06:52:00,
2013-01-30 00:53:00,45.7,41.3,29.62,NE,45,8.7,10.1,84,0.00,,,0.00,VWS V14.01,2013-01-30 06:53:00,
2013-01-30 00:54:00,45.7,41.3,29.62,NE,45,8.3,10.5,84,0.00,,,0.00,VWS V14.01,2013-01-30 06:54:00,
2013-01-30 00:55:00,45.7,41.3,29.62,NNE,22,10.5,10.5,84,0.00,,,0.00,VWS V14.01,2013-01-30 06:55:00,
2013-01-30 00:56:00,45.5,41.2,29.62,NE,45,11.0,11.9,84,0.00,,,0.00,VWS V14.01,2013-01-30 06:56:00,
2013-01-30 00:57:00,45.5,41.2,29.62,NNE,22,8.3,11.0,84,0.00,,,0.00,VWS V14.01,2013-01-30 06:57:00,
2013-01-30 00:58:00,45.5,41.2,29.62,NE,45,14.5,14.5,84,0.00,,,0.00,VWS V14.01,2013-01-30 06:58:00,
2013-01-30 00:59:00,45.4,41.0,29.62,NE,45,13.2,15.0,84,0.00,,,0.00,VWS V14.01,2013-01-30 06:59:00,
2013-01-30 01:00:00,45.4,41.0,29.62,NE,45,10.5,15.0,84,0.00,,,0.00,VWS V14.01,2013-01-30 07:00:00,
2013-01-30 01:01:00,45.4,41.0,29.62,NNE,22,8.1,10.5,84,0.00,,,0.00,VWS V14.01,2013-01-30 07:01:00,
2013-01-30 01:02:00,45.2,40.8,29.62,NE,45,15.4,15.4,84,0.00,,,0.00,VWS V14.01,2013-01-30 07:02:00,
2013-01-30 01:03:00,45.2,40.8,29.62,NE,45,13.6,13.6,84,0.00,,,0.00,VWS V14.01,2013-01-30 07:03:00,
2013-01-30 01:04:00,45.2,40.8,29.62,NE,45,10.5,13.6,84,0.00,,,0.00,VWS V14.01,2013-01-30 07:04:00,
2013-01-30 01:05:00,45.2,40.8,29.62,NE,45,15.4,16.3,84,0.00,,,0.00,VWS V14.01,2013-01-30 07:05:00,
2013-01-30 01:06:00,45.0,40.6,29.62,NE,45,7.6,15.4,84,0.00,,,0.00,VWS V14.01,2013-01-30 07:06:00,
2013-01-30 01:07:00,45.2,40.8,29.62,NE,45,14.5,14.5,84,0.00,,,0.00,VWS V14.01,2013-01-30 07:07:00,
2013-01-30 01:08:00,45.2,40.8,29.62,NE,45,11.9,11.9,84,0.00,,,0.00,VWS V14.01,2013-01-30 07:08:00,
2013-01-30 01:09:00,45.2,40.8,29.62,NE,45,12.8,12.8,84,0.00,,,0.00,VWS V14.01,2013-01-30 07:09:00,
2013-01-30 01:10:00,45.0,40.6,29.62,NE,45,8.3,12.8,84,0.00,,,0.00,VWS V14.01,2013-01-30 07:10:00,
2013-01-30 01:11:00,45.0,40.6,29.62,NE,45,10.1,13.2,84,0.00,,,0.00,VWS V14.01,2013-01-30 07:11:00,
2013-01-30 01:12:00,45.0,40.6,29.62,NE,45,10.1,11.0,84,0.00,,,0.00,VWS V14.01,2013-01-30 07:12:00,
2013-01-30 01:13:00,45.0,40.6,29.62,East,90,13.2,13.2,84,0.00,,,0.00,VWS V14.01,2013-01-30 07:13:00,
2013-01-30 01:14:00,45.0,40.6,29.62,ENE,68,13.2,13.2,84,0.00,,,0.00,VWS V14.01,2013-01-30 07:14:00,
2013-01-30 01:15:00,44.8,40.7,29.62,ENE,68,15.0,15.4,86,0.00,,,0.00,VWS V14.01,2013-01-30 07:15:00,
2013-01-30 01:16:00,44.8,40.7,29.62,NE,45,16.8,17.0,86,0.00,,,0.00,VWS V14.01,2013-01-30 07:16:00,
2013-01-30 01:17:00,44.6,40.6,29.62,NE,45,12.8,16.8,86,0.00,,,0.00,VWS V14.01,2013-01-30 07:17:00,
2013-01-30 01:18:00,44.6,40.6,29.62,NE,45,10.1,10.1,86,0.00,,,0.00,VWS V14.01,2013-01-30 07:18:00,
2013-01-30 01:19:00,44.6,40.6,29.62,NE,45,10.1,10.1,86,0.00,,,0.00,VWS V14.01,2013-01-30 07:19:00,
2013-01-30 01:20:00,44.6,40.6,29.62,NNE,22,7.6,10.1,86,0.00,,,0.00,VWS V14.01,2013-01-30 07:20:00,
2013-01-30 01:21:00,44.6,40.6,29.62,NE,45,8.3,8.7,86,0.00,,,0.00,VWS V14.01,2013-01-30 07:21:00,
2013-01-30 01:22:00,44.6,40.6,29.62,NE,45,13.2,17.0,86,0.00,,,0.00,VWS V14.01,2013-01-30 07:22:00,
2013-01-30 01:23:00,44.5,40.4,29.62,NE,45,13.6,13.6,86,0.00,,,0.00,VWS V14.01,2013-01-30 07:23:00,
2013-01-30 01:24:00,44.5,40.4,29.62,NE,45,10.1,13.6,86,0.00,,,0.00,VWS V14.01,2013-01-30 07:24:00,
2013-01-30 01:25:00,44.5,40.4,29.62,NE,45,16.8,16.8,86,0.00,,,0.00,VWS V14.01,2013-01-30 07:25:00,
2013-01-30 01:26:00,44.3,40.2,29.62,NE,45,15.0,16.8,86,0.00,,,0.00,VWS V14.01,2013-01-30 07:26:00,
2013-01-30 01:27:00,44.1,40.0,29.62,NE,45,14.5,17.0,86,0.00,,,0.00,VWS V14.01,2013-01-30 07:27:00,
2013-01-30 01:28:00,44.1,40.0,29.62,NE,45,12.8,14.5,86,0.00,,,0.00,VWS V14.01,2013-01-30 07:28:00,
2013-01-30 01:29:00,44.1,40.0,29.62,NE,45,11.0,14.5,86,0.00,,,0.00,VWS V14.01,2013-01-30 07:29:00,
2013-01-30 01:30:00,44.1,40.0,29.62,NNE,22,9.6,12.3,86,0.00,,,0.00,VWS V14.01,2013-01-30 07:30:00,
2013-01-30 01:31:00,44.1,40.0,29.62,NE,45,10.1,12.8,86,0.00,,,0.00,VWS V14.01,2013-01-30 07:31:00,
2013-01-30 01:32:00,44.1,40.0,29.62,NE,45,5.8,10.1,86,0.00,,,0.00,VWS V14.01,2013-01-30 07:32:00,
2013-01-30 01:33:00,44.1,40.0,29.62,NE,45,5.8,7.6,86,0.00,,,0.00,VWS V14.01,2013-01-30 07:33:00,
2013-01-30 01:34:00,44.1,40.0,29.62,NE,45,8.3,8.3,86,0.00,,,0.00,VWS V14.01,2013-01-30 07:34:00,
2013-01-30 01:35:00,44.1,40.0,29.62,NE,45,8.3,8.3,86,0.00,,,0.00,VWS V14.01,2013-01-30 07:35:00,
2013-01-30 01:36:00,44.1,40.0,29.62,NNE,22,6.3,8.3,86,0.00,,,0.00,VWS V14.01,2013-01-30 07:36:00,
2013-01-30 01:37:00,44.1,40.0,29.62,NE,45,5.8,7.6,86,0.00,,,0.00,VWS V14.01,2013-01-30 07:37:00,
2013-01-30 01:38:00,44.1,40.0,29.62,NE,45,10.1,10.5,86,0.00,,,0.00,VWS V14.01,2013-01-30 07:38:00,
2013-01-30 01:39:00,44.1,40.0,29.62,NE,45,15.0,15.0,86,0.00,,,0.00,VWS V14.01,2013-01-30 07:39:00,
2013-01-30 01:40:00,43.9,39.9,29.62,NE,45,10.5,15.0,86,0.00,,,0.00,VWS V14.01,2013-01-30 07:40:00,
2013-01-30 01:41:00,43.9,39.9,29.62,NE,45,14.5,14.5,86,0.00,,,0.00,VWS V14.01,2013-01-30 07:41:00,
2013-01-30 01:42:00,43.7,39.7,29.62,NE,45,12.8,14.5,86,0.00,,,0.00,VWS V14.01,2013-01-30 07:42:00,
2013-01-30 01:43:00,43.6,39.5,29.62,NE,45,9.2,9.2,86,0.00,,,0.00,VWS V14.01,2013-01-30 07:43:00,
2013-01-30 01:44:00,43.6,39.5,29.62,NE,45,9.2,9.2,86,0.00,,,0.00,VWS V14.01,2013-01-30 07:44:00,
2013-01-30 01:45:00,43.6,39.5,29.62,NE,45,14.5,14.5,86,0.00,,,0.00,VWS V14.01,2013-01-30 07:45:00,
2013-01-30 01:46:00,43.6,39.5,29.62,NE,45,8.1,14.5,86,0.00,,,0.00,VWS V14.01,2013-01-30 07:46:00,
2013-01-30 01:47:00,43.6,39.5,29.62,NE,45,8.3,10.5,86,0.00,,,0.00,VWS V14.01,2013-01-30 07:47:00,
2013-01-30 01:48:00,43.6,39.5,29.62,NE,45,12.8,12.8,86,0.00,,,0.00,VWS V14.01,2013-01-30 07:48:00,
2013-01-30 01:49:00,43.6,39.5,29.62,NE,45,13.2,13.2,86,0.00,,,0.00,VWS V14.01,2013-01-30 07:49:00,
2013-01-30 01:50:00,43.6,39.5,29.62,NE,45,15.4,15.4,86,0.00,,,0.00,VWS V14.01,2013-01-30 07:50:00,
2013-01-30 01:51:00,43.6,39.5,29.62,ENE,68,15.0,16.8,86,0.00,,,0.00,VWS V14.01,2013-01-30 07:51:00,
2013-01-30 01:52:00,43.6,39.5,29.59,NE,45,9.6,15.4,86,0.00,,,0.00,VWS V14.01,2013-01-30 07:52:00,
2013-01-30 01:53:00,43.6,39.5,29.59,ENE,68,10.5,10.5,86,0.00,,,0.00,VWS V14.01,2013-01-30 07:53:00,
2013-01-30 01:54:00,43.6,39.5,29.59,NE,45,10.1,13.2,86,0.00,,,0.00,VWS V14.01,2013-01-30 07:54:00,
2013-01-30 01:55:00,43.6,39.5,29.59,ENE,68,12.8,15.0,86,0.00,,,0.00,VWS V14.01,2013-01-30 07:55:00,
2013-01-30 01:56:00,43.6,39.5,29.59,NE,45,17.0,17.0,86,0.00,,,0.00,VWS V14.01,2013-01-30 07:56:00,
2013-01-30 01:57:00,43.6,39.5,29.59,NE,45,11.0,17.0,86,0.00,,,0.00,VWS V14.01,2013-01-30 07:57:00,
2013-01-30 01:58:00,43.6,39.5,29.59,East,90,8.3,11.0,86,0.00,,,0.00,VWS V14.01,2013-01-30 07:58:00,
2013-01-30 01:59:00,43.6,39.5,29.59,ENE,68,10.5,13.2,86,0.00,,,0.00,VWS V14.01,2013-01-30 07:59:00,
2013-01-30 02:00:00,43.6,39.5,29.59,NE,45,12.3,16.3,86,0.00,,,0.00,VWS V14.01,2013-01-30 08:00:00,
2013-01-30 02:01:00,43.6,39.5,29.59,NE,45,12.3,12.3,86,0.00,,,0.00,VWS V14.01,2013-01-30 08:01:00,
2013-01-30 02:02:00,43.6,39.5,29.59,NE,45,17.0,17.5,86,0.00,,,0.00,VWS V14.01,2013-01-30 08:02:00,
2013-01-30 02:03:00,43.6,39.5,29.59,ENE,68,15.0,17.0,86,0.00,,,0.00,VWS V14.01,2013-01-30 08:03:00,
2013-01-30 02:04:00,43.6,39.5,29.59,ENE,68,10.5,15.0,86,0.00,,,0.00,VWS V14.01,2013-01-30 08:04:00,
2013-01-30 02:05:00,43.6,39.5,29.59,NE,45,10.5,14.5,86,0.00,,,0.00,VWS V14.01,2013-01-30 08:05:00,
2013-01-30 02:06:00,42.3,38.3,29.62,NE,45,11.9,13.2,86,0.00,,,0.00,VWS V14.01,2013-01-30 08:06:00,
2013-01-30 02:07:00,42.1,38.1,29.62,NE,45,8.7,13.2,86,0.00,,,0.00,VWS V14.01,2013-01-30 08:07:00,
2013-01-30 02:08:00,42.1,38.1,29.62,ENE,68,14.5,15.4,86,0.00,,,0.00,VWS V14.01,2013-01-30 08:08:00,
2013-01-30 02:09:00,42.1,38.1,29.62,NE,45,7.6,15.4,86,0.00,,,0.00,VWS V14.01,2013-01-30 08:09:00,
2013-01-30 02:10:00,42.1,38.1,29.62,ENE,68,12.8,12.8,86,0.00,,,0.00,VWS V14.01,2013-01-30 08:10:00,
2013-01-30 02:11:00,42.1,38.1,29.62,NE,45,11.0,12.8,86,0.00,,,0.00,VWS V14.01,2013-01-30 08:11:00,
2013-01-30 02:12:00,42.1,38.1,29.62,NE,45,10.1,17.0,86,0.00,,,0.00,VWS V14.01,2013-01-30 08:12:00,
2013-01-30 02:13:00,41.9,37.9,29.62,NE,45,13.2,15.4,86,0.00,,,0.00,VWS V14.01,2013-01-30 08:13:00,
2013-01-30 02:14:00,41.8,37.7,29.62,NE,45,11.0,15.4,86,0.00,,,0.00,VWS V14.01,2013-01-30 08:14:00,
2013-01-30 02:15:00,41.9,37.9,29.62,NE,45,11.0,11.4,86,0.00,,,0.00,VWS V14.01,2013-01-30 08:15:00,
2013-01-30 02:16:00,41.8,37.7,29.62,NE,45,15.0,17.5,86,0.00,,,0.00,VWS V14.01,2013-01-30 08:16:00,
2013-01-30 02:17:00,41.6,37.6,29.62,NE,45,14.5,15.0,86,0.00,,,0.00,VWS V14.01,2013-01-30 08:17:00,
2013-01-30 02:18:00,41.6,37.6,29.62,NE,45,8.3,13.2,86,0.00,,,0.00,VWS V14.01,2013-01-30 08:18:00,
2013-01-30 02:19:00,41.6,37.6,29.62,NE,45,13.2,13.6,86,0.00,,,0.00,VWS V14.01,2013-01-30 08:19:00,
2013-01-30 02:20:00,41.4,37.4,29.62,NE,45,11.9,16.8,86,0.00,,,0.00,VWS V14.01,2013-01-30 08:20:00,
2013-01-30 02:21:00,41.4,37.4,29.62,NE,45,15.0,15.0,86,0.00,,,0.00,VWS V14.01,2013-01-30 08:21:00,
2013-01-30 02:22:00,41.4,37.4,29.62,NE,45,11.0,15.0,86,0.00,,,0.00,VWS V14.01,2013-01-30 08:22:00,
2013-01-30 02:23:00,41.4,37.4,29.62,NE,45,11.9,15.0,86,0.00,,,0.00,VWS V14.01,2013-01-30 08:23:00,
2013-01-30 02:24:00,41.4,37.4,29.62,NE,45,15.0,15.0,86,0.00,,,0.00,VWS V14.01,2013-01-30 08:24:00,
2013-01-30 02:25:00,41.4,37.4,29.62,NE,45,8.3,15.0,86,0.00,,,0.00,VWS V14.01,2013-01-30 08:25:00,
2013-01-30 02:26:00,41.4,37.4,29.62,NE,45,8.7,10.1,86,0.00,,,0.00,VWS V14.01,2013-01-30 08:26:00,
2013-01-30 02:28:00,41.4,37.4,29.62,NE,45,7.6,8.1,86,0.00,,,0.00,VWS V14.01,2013-01-30 08:28:00,
2013-01-30 02:33:00,41.2,37.2,29.62,NE,45,8.3,10.1,86,0.00,,,0.00,VWS V14.01,2013-01-30 08:33:00,
2013-01-30 02:38:00,40.5,36.5,29.62,NE,45,19.7,20.6,86,0.00,,,0.00,VWS V14.01,2013-01-30 08:38:00,
2013-01-30 02:43:00,40.3,36.3,29.62,NE,45,11.0,14.5,86,0.00,,,0.00,VWS V14.01,2013-01-30 08:43:00,
2013-01-30 02:48:00,40.1,36.2,29.62,NE,45,10.5,10.5,86,0.00,,,0.00,VWS V14.01,2013-01-30 08:48:00,
2013-01-30 02:53:00,39.8,35.8,29.65,NE,45,13.2,13.2,86,0.00,,,0.00,VWS V14.01,2013-01-30 08:53:00,
2013-01-30 02:58:00,39.4,35.7,29.65,NE,45,15.4,15.4,86,0.00,,,0.00,VWS V14.01,2013-01-30 08:58:00,
2013-01-30 03:03:00,39.1,35.4,29.65,NE,45,12.8,12.8,86,0.00,,,0.00,VWS V14.01,2013-01-30 09:03:00,
2013-01-30 03:08:00,38.9,35.2,29.65,NE,45,9.2,12.3,86,0.00,,,0.00,VWS V14.01,2013-01-30 09:08:00,
2013-01-30 03:13:00,38.3,34.7,29.65,NE,45,12.8,15.9,86,0.00,,,0.00,VWS V14.01,2013-01-30 09:13:00,
2013-01-30 03:18:00,38.0,34.3,29.65,NE,45,14.1,14.1,86,0.00,,,0.00,VWS V14.01,2013-01-30 09:18:00,
2013-01-30 03:23:00,37.3,33.6,29.65,NE,45,13.2,16.3,86,0.00,,,0.00,VWS V14.01,2013-01-30 09:23:00,
2013-01-30 03:28:00,36.2,32.5,29.65,NE,45,11.9,17.0,86,0.00,,,0.00,VWS V14.01,2013-01-30 09:28:00,
2013-01-30 03:33:00,35.5,31.8,29.65,NE,45,11.0,13.2,86,0.00,,,0.00,VWS V14.01,2013-01-30 09:33:00,
2013-01-30 03:38:00,34.7,31.1,29.62,ENE,68,12.8,12.8,86,0.00,,,0.00,VWS V14.01,2013-01-30 09:38:00,
2013-01-30 03:43:00,34.2,30.6,29.62,East,90,10.5,14.5,86,0.00,,,0.00,VWS V14.01,2013-01-30 09:43:00,
2013-01-30 03:48:00,33.3,30.0,29.62,ENE,68,11.0,12.3,88,0.00,,,0.00,VWS V14.01,2013-01-30 09:48:00,
2013-01-30 03:53:00,32.6,29.3,29.62,ENE,68,10.1,10.1,88,0.00,,,0.00,VWS V14.01,2013-01-30 09:53:00,
2013-01-30 03:58:00,30.8,27.5,29.62,ENE,68,10.5,11.0,88,0.00,,,0.00,VWS V14.01,2013-01-30 09:58:00,
2013-01-30 04:03:00,29.5,26.3,29.62,NE,45,15.4,16.3,88,0.00,,,0.00,VWS V14.01,2013-01-30 10:03:00,
2013-01-30 04:08:00,28.8,25.6,29.62,NE,45,8.7,10.5,88,0.00,,,0.00,VWS V14.01,2013-01-30 10:08:00,
2013-01-30 04:13:00,28.1,25.1,29.62,ENE,68,14.1,17.5,88,0.00,,,0.00,VWS V14.01,2013-01-30 10:13:00,
2013-01-30 04:18:00,27.5,24.6,29.62,NE,45,11.0,11.0,88,0.00,,,0.00,VWS V14.01,2013-01-30 10:18:00,
2013-01-30 04:23:00,27.0,24.1,29.62,NE,45,10.1,11.0,88,0.00,,,0.00,VWS V14.01,2013-01-30 10:23:00,
2013-01-30 04:28:00,26.6,23.7,29.62,NE,45,15.0,15.0,88,0.00,,,0.00,VWS V14.01,2013-01-30 10:28:00,
2013-01-30 04:33:00,26.3,23.4,29.62,NE,45,13.2,13.2,88,0.00,,,0.00,VWS V14.01,2013-01-30 10:33:00,
2013-01-30 04:38:00,25.7,23.1,29.62,NE,45,8.7,11.9,90,0.00,,,0.00,VWS V14.01,2013-01-30 10:38:00,
2013-01-30 04:43:00,25.4,22.7,29.62,East,90,11.0,12.3,90,0.00,,,0.00,VWS V14.01,2013-01-30 10:43:00,
2013-01-30 04:48:00,24.8,22.5,29.62,NE,45,8.7,12.8,90,0.00,,,0.00,VWS V14.01,2013-01-30 10:48:00,
2013-01-30 04:53:00,24.7,22.3,29.62,NE,45,17.5,17.5,90,0.00,,,0.00,VWS V14.01,2013-01-30 10:53:00,
2013-01-30 04:58:00,23.9,21.8,29.62,East,90,11.0,12.3,92,0.00,,,0.00,VWS V14.01,2013-01-30 10:58:00,
2013-01-30 05:03:00,23.8,21.1,29.62,ENE,68,10.5,12.8,90,0.00,,,0.00,VWS V14.01,2013-01-30 11:03:00,
2013-01-30 05:08:00,23.4,19.4,29.65,ENE,68,17.0,17.5,84,0.00,,,0.00,VWS V14.01,2013-01-30 11:08:00,
2013-01-30 05:13:00,23.4,18.0,29.65,NE,45,10.5,12.3,80,0.00,,,0.00,VWS V14.01,2013-01-30 11:13:00,
2013-01-30 05:18:00,23.4,16.2,29.65,NE,45,10.5,15.0,74,0.00,,,0.00,VWS V14.01,2013-01-30 11:18:00,
2013-01-30 05:23:00,23.4,16.2,29.65,NE,45,10.5,12.3,74,0.00,,,0.00,VWS V14.01,2013-01-30 11:23:00,
2013-01-30 05:28:00,23.2,16.0,29.65,NE,45,12.8,15.4,74,0.00,,,0.00,VWS V14.01,2013-01-30 11:28:00,
2013-01-30 05:33:00,23.2,15.4,29.65,NE,45,17.5,17.5,72,0.00,,,0.00,VWS V14.01,2013-01-30 11:33:00,
2013-01-30 05:38:00,23.0,15.5,29.65,NE,45,17.0,17.0,72,0.00,,,0.00,VWS V14.01,2013-01-30 11:38:00,
2013-01-30 05:43:00,23.0,15.9,29.65,East,90,10.5,11.0,74,0.00,,,0.00,VWS V14.01,2013-01-30 11:43:00,
2013-01-30 05:48:00,23.0,16.2,29.65,NE,45,12.3,12.3,74,0.00,,,0.00,VWS V14.01,2013-01-30 11:48:00,
2013-01-30 05:53:00,23.0,15.9,29.68,ENE,68,9.6,12.3,74,0.00,,,0.00,VWS V14.01,2013-01-30 11:53:00,
2013-01-30 05:58:00,23.0,15.9,29.68,NE,45,9.6,12.8,74,0.00,,,0.00,VWS V14.01,2013-01-30 11:58:00,
2013-01-30 06:03:00,22.9,16.0,29.68,NE,45,14.5,14.5,74,0.00,,,0.00,VWS V14.01,2013-01-30 12:03:00,
2013-01-30 06:08:00,22.9,16.3,29.68,NE,45,15.4,15.4,76,0.00,,,0.00,VWS V14.01,2013-01-30 12:08:00,
2013-01-30 06:13:00,22.7,16.4,29.68,NE,45,12.3,15.9,76,0.00,,,0.00,VWS V14.01,2013-01-30 12:13:00,
2013-01-30 06:18:00,22.7,17.0,29.68,NE,45,8.3,10.1,78,0.00,,,0.00,VWS V14.01,2013-01-30 12:18:00,
2013-01-30 06:23:00,22.7,17.3,29.68,NE,45,20.6,20.6,80,0.00,,,0.00,VWS V14.01,2013-01-30 12:23:00,
2013-01-30 06:28:00,22.7,17.3,29.68,East,90,11.0,12.3,80,0.00,,,0.00,VWS V14.01,2013-01-30 12:28:00,
2013-01-30 06:33:00,22.1,15.6,29.68,NE,45,23.7,23.7,76,0.00,,,0.00,VWS V14.01,2013-01-30 12:33:00,
2013-01-30 06:38:00,22.0,14.2,29.71,East,90,13.6,19.7,72,0.00,,,0.00,VWS V14.01,2013-01-30 12:38:00,
2013-01-30 06:43:00,22.0,13.5,29.71,NE,45,19.7,19.7,70,0.00,,,0.00,VWS V14.01,2013-01-30 12:43:00,
2013-01-30 06:48:00,22.0,12.9,29.71,NE,45,17.5,17.5,68,0.00,,,0.00,VWS V14.01,2013-01-30 12:48:00,
2013-01-30 06:53:00,21.8,12.4,29.71,NE,45,19.7,19.7,66,0.00,,,0.00,VWS V14.01,2013-01-30 12:53:00,
2013-01-30 06:58:00,21.8,12.0,29.71,NE,45,14.1,14.1,66,0.00,,,0.00,VWS V14.01,2013-01-30 12:58:00,
2013-01-30 07:03:00,21.6,11.8,29.71,NE,45,17.5,17.5,66,0.00,,,0.00,VWS V14.01,2013-01-30 13:03:00,
2013-01-30 07:08:00,21.6,12.5,29.74,ENE,68,15.4,15.4,68,0.00,,,0.00,VWS V14.01,2013-01-30 13:08:00,
2013-01-30 07:13:00,21.4,12.7,29.74,NE,45,13.2,13.2,68,0.00,,,0.00,VWS V14.01,2013-01-30 13:13:00,
2013-01-30 07:18:00,21.4,13.0,29.74,East,90,13.6,16.8,70,0.00,,,0.00,VWS V14.01,2013-01-30 13:18:00,
2013-01-30 07:23:00,21.4,13.3,29.74,ENE,68,15.4,15.4,70,0.00,,,0.00,VWS V14.01,2013-01-30 13:23:00,
2013-01-30 07:28:00,21.1,13.6,29.74,ENE,68,17.5,17.5,72,0.00,,,0.00,VWS V14.01,2013-01-30 13:28:00,
2013-01-30 07:33:00,21.1,14.2,29.74,NE,45,11.0,11.0,74,0.00,,,0.00,VWS V14.01,2013-01-30 13:33:00,
2013-01-30 07:38:00,20.7,14.5,29.74,ENE,68,12.3,12.3,76,0.00,,,0.00,VWS V14.01,2013-01-30 13:38:00,
2013-01-30 07:43:00,20.7,15.1,29.74,NE,45,18.8,18.8,78,0.00,,,0.00,VWS V14.01,2013-01-30 13:43:00,
2013-01-30 07:48:00,20.7,15.7,29.74,ENE,68,13.2,13.2,80,0.00,,,0.00,VWS V14.01,2013-01-30 13:48:00,
2013-01-30 07:53:00,20.7,15.9,29.76,NE,45,10.1,12.8,82,0.00,,,0.00,VWS V14.01,2013-01-30 13:53:00,
2013-01-30 07:58:00,20.7,16.2,29.76,NE,45,13.2,13.2,82,0.00,,,0.00,VWS V14.01,2013-01-30 13:58:00,
2013-01-30 08:03:00,20.9,16.1,29.76,ENE,68,15.0,15.0,82,0.00,,,0.00,VWS V14.01,2013-01-30 14:03:00,
2013-01-30 08:08:00,20.9,15.0,29.76,NE,45,15.0,15.4,78,0.00,,,0.00,VWS V14.01,2013-01-30 14:08:00,
2013-01-30 08:13:00,20.9,14.7,29.76,ENE,68,15.4,15.4,76,0.00,,,0.00,VWS V14.01,2013-01-30 14:13:00,
2013-01-30 08:18:00,20.9,14.4,29.76,NE,45,13.2,15.9,76,0.00,,,0.00,VWS V14.01,2013-01-30 14:18:00,
2013-01-30 08:23:00,21.1,14.5,29.79,NE,45,19.2,19.2,76,0.00,,,0.00,VWS V14.01,2013-01-30 14:23:00,
2013-01-30 08:28:00,21.1,14.5,29.79,ENE,68,12.3,12.3,76,0.00,,,0.00,VWS V14.01,2013-01-30 14:28:00,
2013-01-30 08:33:00,21.1,14.5,29.79,NE,45,12.8,12.8,76,0.00,,,0.00,VWS V14.01,2013-01-30 14:33:00,
2013-01-30 08:38:00,20.9,14.4,29.79,ENE,68,15.0,15.0,76,0.00,,,0.00,VWS V14.01,2013-01-30 14:38:00,
2013-01-30 08:43:00,34.7,27.1,29.79,NE,45,13.6,27.1,74,0.00,,,0.00,VWS V14.01,2013-01-30 14:43:00,
2013-01-30 08:48:00,34.5,26.6,29.79,NE,45,15.9,15.9,72,0.00,,,0.00,VWS V14.01,2013-01-30 14:48:00,
2013-01-30 08:53:00,34.5,26.9,29.79,NE,45,10.1,14.5,74,0.00,,,0.00,VWS V14.01,2013-01-30 14:53:00,
2013-01-30 08:58:00,34.3,27.1,29.79,East,90,16.8,16.8,74,0.00,,,0.00,VWS V14.01,2013-01-30 14:58:00,
2013-01-30 09:03:00,34.2,27.9,29.79,NE,45,8.3,17.9,78,0.00,,,0.00,VWS V14.01,2013-01-30 15:03:00,
2013-01-30 09:08:00,34.2,27.6,29.79,NE,45,17.5,17.5,76,0.00,,,0.00,VWS V14.01,2013-01-30 15:08:00,
2013-01-30 09:13:00,34.2,27.2,29.79,ENE,68,14.5,20.1,76,0.00,,,0.00,VWS V14.01,2013-01-30 15:13:00,
2013-01-30 09:18:00,34.5,27.3,29.79,ENE,68,10.1,10.1,74,0.00,,,0.00,VWS V14.01,2013-01-30 15:18:00,
2013-01-30 09:23:00,34.2,26.3,29.79,ENE,68,16.8,20.1,72,0.00,,,0.00,VWS V14.01,2013-01-30 15:23:00,
2013-01-30 09:28:00,34.2,25.2,29.79,ENE,68,10.1,14.5,70,0.00,,,0.00,VWS V14.01,2013-01-30 15:28:00,
2013-01-30 09:33:00,34.3,25.4,29.79,NE,45,7.6,14.5,70,0.00,,,0.00,VWS V14.01,2013-01-30 15:33:00,
2013-01-30 09:38:00,34.3,24.7,29.79,ENE,68,15.0,15.0,68,0.00,,,0.00,VWS V14.01,2013-01-30 15:38:00,
2013-01-30 09:43:00,34.3,24.4,29.79,NE,45,13.2,13.6,66,0.00,,,0.00,VWS V14.01,2013-01-30 15:43:00,
2013-01-30 09:48:00,34.2,24.2,29.79,East,90,8.1,13.2,66,0.00,,,0.00,VWS V14.01,2013-01-30 15:48:00,
2013-01-30 09:53:00,34.2,23.8,29.82,East,90,17.0,17.5,66,0.00,,,0.00,VWS V14.01,2013-01-30 15:53:00,
2013-01-30 09:58:00,34.0,22.9,29.82,East,90,7.6,8.7,64,0.00,,,0.00,VWS V14.01,2013-01-30 15:58:00,
2013-01-30 10:03:00,34.0,22.5,29.82,ENE,68,9.2,12.3,62,0.00,,,0.00,VWS V14.01,2013-01-30 16:03:00,
2013-01-30 10:08:00,33.8,22.4,29.82,NE,45,18.3,18.3,62,0.00,,,0.00,VWS V14.01,2013-01-30 16:08:00,
2013-01-30 10:12:00,33.6,22.2,29.82,East,90,13.2,24.2,62,0.00,,,0.00,VWS V14.01,2013-01-30 16:12:00,
2013-01-30 10:17:00,33.3,22.2,29.82,ENE,68,11.4,11.4,64,0.00,,,0.00,VWS V14.01,2013-01-30 16:17:00,
2013-01-30 10:22:00,33.3,22.2,29.82,East,90,11.0,15.0,64,0.00,,,0.00,VWS V14.01,2013-01-30 16:22:00,
2013-01-30 10:27:00,33.1,21.7,29.82,ENE,68,17.5,17.5,62,0.00,,,0.00,VWS V14.01,2013-01-30 16:27:00,
2013-01-30 10:32:00,33.1,21.7,29.82,ENE,68,19.2,25.1,62,0.00,,,0.00,VWS V14.01,2013-01-30 16:32:00,
2013-01-30 10:37:00,33.1,22.1,29.82,NE,45,12.3,14.5,64,0.00,,,0.00,VWS V14.01,2013-01-30 16:37:00,
2013-01-30 10:42:00,32.5,22.6,29.82,East,90,15.4,21.5,66,0.00,,,0.00,VWS V14.01,2013-01-30 16:42:00,
2013-01-30 10:47:00,31.8,22.0,29.82,East,90,26.2,27.5,66,0.00,,,0.00,VWS V14.01,2013-01-30 16:47:00,
2013-01-30 10:52:00,31.5,21.6,29.85,NE,45,22.4,24.2,66,0.00,,,0.00,VWS V14.01,2013-01-30 16:52:00,
2013-01-30 10:57:00,31.5,21.6,29.85,ENE,68,13.2,17.0,66,0.00,,,0.00,VWS V14.01,2013-01-30 16:57:00,
2013-01-30 11:02:00,31.3,21.1,29.85,East,90,10.5,19.2,66,0.00,,,0.00,VWS V14.01,2013-01-30 17:02:00,
2013-01-30 11:07:00,31.3,21.1,29.85,East,90,17.5,21.9,66,0.00,,,0.00,VWS V14.01,2013-01-30 17:07:00,
2013-01-30 11:12:00,31.3,21.1,29.85,ENE,68,13.2,25.7,66,0.00,,,0.00,VWS V14.01,2013-01-30 17:12:00,
2013-01-30 11:17:00,31.6,20.7,29.85,ENE,68,11.0,12.8,64,0.00,,,0.00,VWS V14.01,2013-01-30 17:17:00,
2013-01-30 11:22:00,31.6,20.3,29.85,East,90,5.8,15.4,62,0.00,,,0.00,VWS V14.01,2013-01-30 17:22:00,
2013-01-30 11:27:00,31.5,20.5,29.85,NE,45,15.4,19.7,64,0.00,,,0.00,VWS V14.01,2013-01-30 17:27:00,
2013-01-30 11:32:00,31.3,20.0,29.85,East,90,22.8,27.1,62,0.00,,,0.00,VWS V14.01,2013-01-30 17:32:00,
2013-01-30 11:37:00,31.1,19.4,29.85,ENE,68,17.9,22.8,62,0.00,,,0.00,VWS V14.01,2013-01-30 17:37:00,
2013-01-30 11:42:00,30.9,18.9,29.85,ESE,112,17.5,17.5,60,0.00,,,0.00,VWS V14.01,2013-01-30 17:42:00,
2013-01-30 11:47:00,30.7,19.1,29.85,ENE,68,17.0,19.7,62,0.00,,,0.00,VWS V14.01,2013-01-30 17:47:00,
2013-01-30 11:52:00,30.2,19.0,29.88,East,90,24.2,27.1,62,0.00,,,0.00,VWS V14.01,2013-01-30 17:52:00,
2013-01-30 11:57:00,30.2,19.0,29.88,East,90,17.5,30.2,62,0.00,,,0.00,VWS V14.01,2013-01-30 17:57:00,
2013-01-30 12:02:00,30.2,18.6,29.88,East,90,15.0,15.0,62,0.00,,,0.00,VWS V14.01,2013-01-30 18:02:00,
2013-01-30 12:07:00,30.6,19.3,29.88,East,90,15.0,15.0,62,0.00,,,0.00,VWS V14.01,2013-01-30 18:07:00,
2013-01-30 12:12:00,30.4,19.1,29.88,East,90,15.0,15.0,62,0.00,,,0.00,VWS V14.01,2013-01-30 18:12:00,
2013-01-30 12:17:00,30.4,19.9,29.88,NE,45,8.3,8.3,64,0.00,,,0.00,VWS V14.01,2013-01-30 18:17:00,
2013-01-30 12:22:00,30.4,19.5,29.88,NE,45,8.3,8.3,64,0.00,,,0.00,VWS V14.01,2013-01-30 18:22:00,
2013-01-30 12:27:00,30.2,19.3,29.88,NE,45,12.8,12.8,64,0.00,,,0.00,VWS V14.01,2013-01-30 18:27:00,
2013-01-30 12:32:00,30.6,20.0,29.88,NE,45,14.5,14.5,64,0.00,,,0.00,VWS V14.01,2013-01-30 18:32:00,
2013-01-30 12:37:00,30.6,19.7,29.88,NE,45,19.7,21.0,64,0.00,,,0.00,VWS V14.01,2013-01-30 18:37:00,
2013-01-30 12:42:00,30.4,19.1,29.88,East,90,14.1,15.4,62,0.00,,,0.00,VWS V14.01,2013-01-30 18:42:00,
2013-01-30 12:47:00,30.2,19.3,29.88,East,90,24.2,24.2,64,0.00,,,0.00,VWS V14.01,2013-01-30 18:47:00,
2013-01-30 12:52:00,29.8,19.3,29.88,ENE,68,19.7,23.3,64,0.00,,,0.00,VWS V14.01,2013-01-30 18:52:00,
2013-01-30 12:57:00,29.7,18.4,29.88,East,90,20.1,23.3,62,0.00,,,0.00,VWS V14.01,2013-01-30 18:57:00,
2013-01-30 13:02:00,29.7,18.1,29.88,East,90,8.3,8.3,62,0.00,,,0.00,VWS V14.01,2013-01-30 19:02:00,
2013-01-30 13:07:00,29.7,18.1,29.88,ENE,68,20.1,20.1,62,0.00,,,0.00,VWS V14.01,2013-01-30 19:07:00,
2013-01-30 13:12:00,29.5,17.9,29.88,East,90,12.3,17.0,62,0.00,,,0.00,VWS V14.01,2013-01-30 19:12:00,
2013-01-30 13:17:00,29.5,18.3,29.88,NE,45,12.8,24.2,62,0.00,,,0.00,VWS V14.01,2013-01-30 19:17:00,
2013-01-30 13:22:00,29.7,18.8,29.91,NE,45,10.5,13.2,64,0.00,,,0.00,VWS V14.01,2013-01-30 19:22:00,
2013-01-30 13:27:00,29.7,18.4,29.91,ENE,68,15.9,21.5,62,0.00,,,0.00,VWS V14.01,2013-01-30 19:27:00,
2013-01-30 13:32:00,29.5,17.5,29.91,ENE,68,10.5,15.0,60,0.00,,,0.00,VWS V14.01,2013-01-30 19:32:00,
2013-01-30 13:37:00,29.3,17.3,29.91,NE,45,18.8,21.9,60,0.00,,,0.00,VWS V14.01,2013-01-30 19:37:00,
2013-01-30 13:42:00,29.3,17.3,29.91,East,90,19.7,27.1,60,0.00,,,0.00,VWS V14.01,2013-01-30 19:42:00,
2013-01-30 13:47:00,29.3,17.3,29.91,ENE,68,20.1,20.1,60,0.00,,,0.00,VWS V14.01,2013-01-30 19:47:00,
2013-01-30 13:52:00,29.3,17.7,29.91,NE,45,15.4,15.4,62,0.00,,,0.00,VWS V14.01,2013-01-30 19:52:00,
2013-01-30 13:57:00,29.1,17.2,29.91,East,90,15.4,17.9,60,0.00,,,0.00,VWS V14.01,2013-01-30 19:57:00,
2013-01-30 14:02:00,29.3,17.7,29.91,NE,45,12.8,17.0,62,0.00,,,0.00,VWS V14.01,2013-01-30 20:02:00,
2013-01-30 14:07:00,29.1,16.4,29.91,NE,45,14.1,23.3,58,0.00,,,0.00,VWS V14.01,2013-01-30 20:07:00,
2013-01-30 14:12:00,29.1,16.8,29.91,NE,45,15.9,20.1,60,0.00,,,0.00,VWS V14.01,2013-01-30 20:12:00,
2013-01-30 14:17:00,29.5,17.1,29.91,NE,45,18.3,20.6,60,0.00,,,0.00,VWS V14.01,2013-01-30 20:17:00,
2013-01-30 14:22:00,29.5,17.5,29.91,NE,45,13.2,22.4,60,0.00,,,0.00,VWS V14.01,2013-01-30 20:22:00,
2013-01-30 14:27:00,29.3,17.0,29.91,ENE,68,11.0,15.4,60,0.00,,,0.00,VWS V14.01,2013-01-30 20:27:00,
2013-01-30 14:32:00,29.5,17.5,29.91,NE,45,15.0,15.0,60,0.00,,,0.00,VWS V14.01,2013-01-30 20:32:00,
2013-01-30 14:37:00,29.3,17.0,29.91,NE,45,13.2,16.3,60,0.00,,,0.00,VWS V14.01,2013-01-30 20:37:00,
2013-01-30 14:42:00,28.9,16.6,29.91,NE,45,16.8,26.2,60,0.00,,,0.00,VWS V14.01,2013-01-30 20:42:00,
2013-01-30 14:47:00,28.8,16.5,29.91,ENE,68,14.5,23.3,60,0.00,,,0.00,VWS V14.01,2013-01-30 20:47:00,
2013-01-30 14:52:00,28.6,15.9,29.91,NE,45,17.0,22.4,58,0.00,,,0.00,VWS V14.01,2013-01-30 20:52:00,
2013-01-30 14:57:00,28.6,15.9,29.91,NE,45,15.4,20.6,58,0.00,,,0.00,VWS V14.01,2013-01-30 20:57:00,
2013-01-30 15:02:00,28.6,16.3,29.91,NE,45,14.5,14.5,60,0.00,,,0.00,VWS V14.01,2013-01-30 21:02:00,
2013-01-30 15:07:00,28.4,15.7,29.91,NE,45,19.7,26.2,58,0.00,,,0.00,VWS V14.01,2013-01-30 21:07:00,
2013-01-30 15:12:00,28.8,16.5,29.91,NE,45,8.3,15.0,60,0.00,,,0.00,VWS V14.01,2013-01-30 21:12:00,
2013-01-30 15:17:00,28.8,16.5,29.91,NE,45,10.5,14.5,60,0.00,,,0.00,VWS V14.01,2013-01-30 21:17:00,
2013-01-30 15:22:00,28.8,16.8,29.94,NE,45,17.0,17.5,60,0.00,,,0.00,VWS V14.01,2013-01-30 21:22:00,
2013-01-30 15:27:00,28.8,16.5,29.94,NE,45,13.2,13.2,60,0.00,,,0.00,VWS V14.01,2013-01-30 21:27:00,
2013-01-30 15:32:00,28.9,16.6,29.94,NE,45,17.0,17.5,60,0.00,,,0.00,VWS V14.01,2013-01-30 21:32:00,
2013-01-30 15:37:00,28.9,15.8,29.94,NE,45,18.8,24.6,58,0.00,,,0.00,VWS V14.01,2013-01-30 21:37:00,
2013-01-30 15:42:00,29.1,16.4,29.94,NE,45,17.5,17.5,58,0.00,,,0.00,VWS V14.01,2013-01-30 21:42:00,
2013-01-30 15:47:00,28.9,15.8,29.94,NE,45,17.0,20.6,58,0.00,,,0.00,VWS V14.01,2013-01-30 21:47:00,
2013-01-30 15:52:00,29.1,16.0,29.94,NE,45,12.8,12.8,58,0.00,,,0.00,VWS V14.01,2013-01-30 21:52:00,
2013-01-30 15:57:00,29.3,15.8,29.94,NE,45,14.1,14.1,56,0.00,,,0.00,VWS V14.01,2013-01-30 21:57:00,
2013-01-30 16:02:00,29.3,15.8,29.94,NE,45,13.2,13.2,56,0.00,,,0.00,VWS V14.01,2013-01-30 22:02:00,
2013-01-30 16:07:00,29.5,15.9,29.94,NE,45,16.8,20.6,56,0.00,,,0.00,VWS V14.01,2013-01-30 22:07:00,
2013-01-30 16:12:00,29.5,15.1,29.94,NE,45,23.3,23.3,54,0.00,,,0.00,VWS V14.01,2013-01-30 22:12:00,
2013-01-30 16:17:00,29.5,15.5,29.94,NE,45,14.1,16.3,56,0.00,,,0.00,VWS V14.01,2013-01-30 22:17:00,
2013-01-30 16:22:00,29.7,15.7,29.94,NE,45,11.0,15.4,56,0.00,,,0.00,VWS V14.01,2013-01-30 22:22:00,
2013-01-30 16:27:00,29.7,15.7,29.94,NE,45,22.8,22.8,56,0.00,,,0.00,VWS V14.01,2013-01-30 22:27:00,
2013-01-30 16:32:00,29.8,15.9,29.94,NE,45,10.1,11.0,56,0.00,,,0.00,VWS V14.01,2013-01-30 22:32:00,
2013-01-30 16:37:00,29.8,15.4,29.94,East,90,15.0,17.5,54,0.00,,,0.00,VWS V14.01,2013-01-30 22:37:00,
2013-01-30 16:42:00,30.2,16.2,29.94,NE,45,10.5,12.3,56,0.00,,,0.00,VWS V14.01,2013-01-30 22:42:00,
2013-01-30 16:47:00,30.0,16.0,29.94,NE,45,17.0,17.0,56,0.00,,,0.00,VWS V14.01,2013-01-30 22:47:00,
2013-01-30 16:52:00,30.2,16.2,29.97,NE,45,11.0,12.8,56,0.00,,,0.00,VWS V14.01,2013-01-30 22:52:00,
2013-01-30 16:57:00,30.2,16.6,29.97,NE,45,13.2,13.6,56,0.00,,,0.00,VWS V14.01,2013-01-30 22:57:00,
2013-01-30 17:02:00,30.2,16.6,29.97,NE,45,10.5,10.5,56,0.00,,,0.00,VWS V14.01,2013-01-30 23:02:00,
2013-01-30 17:07:00,30.2,16.6,29.97,ENE,68,10.1,10.1,56,0.00,,,0.00,VWS V14.01,2013-01-30 23:07:00,
2013-01-30 17:12:00,30.2,16.2,29.97,NE,45,10.5,11.0,56,0.00,,,0.00,VWS V14.01,2013-01-30 23:12:00,
2013-01-30 17:17:00,30.0,16.0,29.97,NE,45,15.0,15.0,56,0.00,,,0.00,VWS V14.01,2013-01-30 23:17:00,
2013-01-30 17:22:00,30.0,16.0,29.97,ENE,68,12.3,15.4,56,0.00,,,0.00,VWS V14.01,2013-01-30 23:22:00,
2013-01-30 17:27:00,30.0,16.4,29.97,NE,45,8.3,10.5,56,0.00,,,0.00,VWS V14.01,2013-01-30 23:27:00,
2013-01-30 17:32:00,30.0,16.4,29.97,ENE,68,8.7,8.7,56,0.00,,,0.00,VWS V14.01,2013-01-30 23:32:00,
2013-01-30 17:37:00,30.0,16.4,29.97,NE,45,10.5,10.5,56,0.00,,,0.00,VWS V14.01,2013-01-30 23:37:00,
2013-01-30 17:42:00,29.8,16.3,29.97,NE,45,8.1,8.1,56,0.00,,,0.00,VWS V14.01,2013-01-30 23:42:00,
2013-01-30 17:47:00,30.0,16.4,29.97,NE,45,11.0,11.0,56,0.00,,,0.00,VWS V14.01,2013-01-30 23:47:00,
2013-01-30 17:52:00,30.0,16.4,30.00,NE,45,11.0,11.0,56,0.00,,,0.00,VWS V14.01,2013-01-30 23:52:00,
2013-01-30 17:57:00,30.2,16.6,30.00,NE,45,9.6,10.1,56,0.00,,,0.00,VWS V14.01,2013-01-30 23:57:00,
2013-01-30 18:02:00,30.2,16.6,30.00,NE,45,9.6,9.6,56,0.00,,,0.00,VWS V14.01,2013-01-31 00:02:00,
2013-01-30 18:07:00,30.0,16.4,30.00,NE,45,5.4,5.8,56,0.00,,,0.00,VWS V14.01,2013-01-31 00:07:00,
2013-01-30 18:12:00,30.0,16.0,30.00,NE,45,8.7,9.6,56,0.00,,,0.00,VWS V14.01,2013-01-31 00:12:00,
2013-01-30 18:17:00,30.0,16.4,30.00,NE,45,5.8,8.3,56,0.00,,,0.00,VWS V14.01,2013-01-31 00:17:00,
2013-01-30 18:22:00,29.7,16.1,30.03,ENE,68,6.7,8.1,56,0.00,,,0.00,VWS V14.01,2013-01-31 00:22:00,
2013-01-30 18:27:00,29.7,16.1,30.03,NE,45,8.7,8.7,56,0.00,,,0.00,VWS V14.01,2013-01-31 00:27:00,
2013-01-30 18:32:00,29.7,16.5,30.03,NE,45,10.1,10.1,58,0.00,,,0.00,VWS V14.01,2013-01-31 00:32:00,
2013-01-30 18:37:00,29.7,16.5,30.03,NE,45,5.8,5.8,58,0.00,,,0.00,VWS V14.01,2013-01-31 00:37:00,
2013-01-30 18:42:00,29.7,16.5,30.03,ENE,68,5.4,8.3,58,0.00,,,0.00,VWS V14.01,2013-01-31 00:42:00,
2013-01-30 18:47:00,29.8,16.7,30.03,NE,45,8.3,8.3,58,0.00,,,0.00,VWS V14.01,2013-01-31 00:47:00,
2013-01-30 18:52:00,29.8,16.7,30.03,NE,45,5.4,5.4,58,0.00,,,0.00,VWS V14.01,2013-01-31 00:52:00,
2013-01-30 18:57:00,29.8,16.7,30.03,NE,45,3.1,3.6,58,0.00,,,0.00,VWS V14.01,2013-01-31 00:57:00,
2013-01-30 19:02:00,29.8,16.7,30.03,NE,45,5.4,5.4,58,0.00,,,0.00,VWS V14.01,2013-01-31 01:02:00,
2013-01-30 19:07:00,29.5,16.3,30.03,ENE,68,5.4,5.4,58,0.00,,,0.00,VWS V14.01,2013-01-31 01:07:00,
2013-01-30 19:12:00,29.1,16.0,30.03,NE,45,4.0,4.9,58,0.00,,,0.00,VWS V14.01,2013-01-31 01:12:00,
2013-01-30 19:17:00,28.9,16.2,30.03,NE,45,3.6,4.9,58,0.00,,,0.00,VWS V14.01,2013-01-31 01:17:00,
2013-01-30 19:22:00,28.6,15.9,30.03,NE,45,4.0,6.3,58,0.00,,,0.00,VWS V14.01,2013-01-31 01:22:00,
2013-01-30 19:27:00,28.6,15.9,30.03,NE,45,5.8,5.8,58,0.00,,,0.00,VWS V14.01,2013-01-31 01:27:00,
2013-01-30 19:32:00,28.4,16.1,30.03,NE,45,4.0,4.0,60,0.00,,,0.00,VWS V14.01,2013-01-31 01:32:00,
2013-01-30 19:37:00,28.0,15.8,30.03,East,90,2.7,4.0,60,0.00,,,0.00,VWS V14.01,2013-01-31 01:37:00,
2013-01-30 19:42:00,27.9,16.0,30.03,NE,45,3.1,3.6,60,0.00,,,0.00,VWS V14.01,2013-01-31 01:42:00,
2013-01-30 19:59:00,27.9,16.0,30.03,NE,45,2.7,2.7,60,0.00,,,0.00,VWS V14.01,2013-01-31 01:59:00,
2013-01-30 20:04:00,27.1,16.4,30.03,ENE,68,2.7,4.0,64,0.00,,,0.00,VWS V14.01,2013-01-31 02:04:00,
2013-01-30 20:09:00,27.0,16.2,30.06,ENE,68,2.7,3.6,64,0.00,,,0.00,VWS V14.01,2013-01-31 02:09:00,
2013-01-30 20:14:00,27.0,16.2,30.06,ENE,68,3.6,4.0,64,0.00,,,0.00,VWS V14.01,2013-01-31 02:14:00,
2013-01-30 20:19:00,27.0,16.2,30.06,NE,45,2.7,3.6,64,0.00,,,0.00,VWS V14.01,2013-01-31 02:19:00,
2013-01-30 20:24:00,27.0,16.2,30.03,NE,45,4.5,5.8,64,0.00,,,0.00,VWS V14.01,2013-01-31 02:24:00,
2013-01-30 20:29:00,26.8,16.1,30.03,NE,45,0.0,0.0,64,0.00,,,0.00,VWS V14.01,2013-01-31 02:29:00,
2013-01-30 20:34:00,26.8,16.1,30.03,NE,45,4.9,5.4,64,0.00,,,0.00,VWS V14.01,2013-01-31 02:34:00,
2013-01-30 20:39:00,26.8,16.1,30.06,NE,45,4.9,4.9,64,0.00,,,0.00,VWS V14.01,2013-01-31 02:39:00,
2013-01-30 20:44:00,26.4,16.1,30.06,NE,45,2.2,3.1,64,0.00,,,0.00,VWS V14.01,2013-01-31 02:44:00,
2013-01-30 20:49:00,26.2,15.9,30.06,NE,45,3.1,3.6,64,0.00,,,0.00,VWS V14.01,2013-01-31 02:49:00,
2013-01-30 20:54:00,26.2,16.3,30.06,NE,45,2.7,3.1,66,0.00,,,0.00,VWS V14.01,2013-01-31 02:54:00,
2013-01-30 20:59:00,26.1,16.1,30.06,NE,45,0.0,0.0,66,0.00,,,0.00,VWS V14.01,2013-01-31 02:59:00,
2013-01-30 21:04:00,26.1,16.5,30.06,NE,45,5.4,5.4,66,0.00,,,0.00,VWS V14.01,2013-01-31 03:04:00,
2013-01-30 21:09:00,25.9,16.3,30.06,NE,45,4.9,4.9,66,0.00,,,0.00,VWS V14.01,2013-01-31 03:09:00,
2013-01-30 21:14:00,25.9,16.3,30.06,NE,45,3.1,3.6,66,0.00,,,0.00,VWS V14.01,2013-01-31 03:14:00,
2013-01-30 21:19:00,25.9,16.3,30.06,NE,45,4.0,4.0,66,0.00,,,0.00,VWS V14.01,2013-01-31 03:19:00,
2013-01-30 21:24:00,25.7,16.5,30.09,NE,45,4.9,4.9,68,0.00,,,0.00,VWS V14.01,2013-01-31 03:24:00,
2013-01-30 21:29:00,25.7,16.5,30.09,NE,45,4.0,4.0,68,0.00,,,0.00,VWS V14.01,2013-01-31 03:29:00,
2013-01-30 21:34:00,25.5,16.3,30.09,NE,45,0.0,0.0,68,0.00,,,0.00,VWS V14.01,2013-01-31 03:34:00,
2013-01-30 21:39:00,25.3,16.1,30.06,NE,45,0.0,0.0,68,0.00,,,0.00,VWS V14.01,2013-01-31 03:39:00,
2013-01-30 21:44:00,25.3,16.1,30.06,NE,45,0.0,0.0,68,0.00,,,0.00,VWS V14.01,2013-01-31 03:44:00,
2013-01-30 21:49:00,25.2,16.3,30.06,NE,45,0.0,0.0,68,0.00,,,0.00,VWS V14.01,2013-01-31 03:49:00,
2013-01-30 21:54:00,25.0,16.1,30.09,NE,45,0.0,0.0,68,0.00,,,0.00,VWS V14.01,2013-01-31 03:54:00,
2013-01-30 21:59:00,24.8,16.3,30.09,NE,45,0.0,0.0,70,0.00,,,0.00,VWS V14.01,2013-01-31 03:59:00,
2013-01-30 22:04:00,24.8,16.6,30.09,NE,45,0.0,0.0,70,0.00,,,0.00,VWS V14.01,2013-01-31 04:04:00,
2013-01-30 22:09:00,24.6,16.4,30.09,NE,45,0.0,0.0,70,0.00,,,0.00,VWS V14.01,2013-01-31 04:09:00,
2013-01-30 22:14:00,24.4,16.6,30.09,NE,45,0.0,0.0,72,0.00,,,0.00,VWS V14.01,2013-01-31 04:14:00,
2013-01-30 22:19:00,24.4,16.6,30.09,NE,45,0.0,0.0,72,0.00,,,0.00,VWS V14.01,2013-01-31 04:19:00,
2013-01-30 22:24:00,24.3,16.7,30.09,NE,45,0.0,0.0,72,0.00,,,0.00,VWS V14.01,2013-01-31 04:24:00,
2013-01-30 22:29:00,23.9,16.4,30.09,NE,45,0.0,0.0,72,0.00,,,0.00,VWS V14.01,2013-01-31 04:29:00,
2013-01-30 22:34:00,23.7,16.2,30.09,NE,45,0.0,0.0,72,0.00,,,0.00,VWS V14.01,2013-01-31 04:34:00,
2013-01-30 22:39:00,23.7,16.5,30.09,NE,45,0.0,0.0,74,0.00,,,0.00,VWS V14.01,2013-01-31 04:39:00,
2013-01-30 22:44:00,23.2,16.0,30.09,NE,45,0.0,0.0,74,0.00,,,0.00,VWS V14.01,2013-01-31 04:44:00,
2013-01-30 22:49:00,23.0,16.1,30.09,NE,45,0.0,0.0,74,0.00,,,0.00,VWS V14.01,2013-01-31 04:49:00,
2013-01-30 22:54:00,23.2,16.9,30.09,NE,45,0.0,0.0,76,0.00,,,0.00,VWS V14.01,2013-01-31 04:54:00,
2013-01-30 22:59:00,23.2,17.2,30.09,NE,45,0.0,0.0,78,0.00,,,0.00,VWS V14.01,2013-01-31 04:59:00,
2013-01-30 23:00:00,23.0,17.0,30.09,NE,45,0.0,0.0,78,0.00,,,0.00,VWS V14.01,2013-01-31 05:00:00,
2013-01-30 23:05:00,22.5,16.8,30.09,NE,45,0.0,0.0,78,0.00,,,0.00,VWS V14.01,2013-01-31 05:05:00,
2013-01-30 23:10:00,22.3,16.6,30.09,NE,45,0.0,0.0,78,0.00,,,0.00,VWS V14.01,2013-01-31 05:10:00,
2013-01-30 23:15:00,22.3,16.9,30.09,NE,45,0.0,0.0,80,0.00,,,0.00,VWS V14.01,2013-01-31 05:15:00,
2013-01-30 23:20:00,21.9,16.9,30.09,NE,45,0.0,0.0,80,0.00,,,0.00,VWS V14.01,2013-01-31 05:20:00,
2013-01-30 23:25:00,21.7,16.7,30.09,NE,45,0.0,0.0,80,0.00,,,0.00,VWS V14.01,2013-01-31 05:25:00,
2013-01-30 23:30:00,21.4,16.3,30.09,NE,45,0.0,0.0,80,0.00,,,0.00,VWS V14.01,2013-01-31 05:30:00,
2013-01-30 23:35:00,21.9,17.4,30.09,NE,45,0.0,0.0,82,0.00,,,0.00,VWS V14.01,2013-01-31 05:35:00,
2013-01-30 23:40:00,22.5,18.2,30.09,NE,45,0.0,0.0,84,0.00,,,0.00,VWS V14.01,2013-01-31 05:40:00,
2013-01-30 23:45:00,22.3,18.3,30.09,NE,45,0.0,0.0,84,0.00,,,0.00,VWS V14.01,2013-01-31 05:45:00,
2013-01-30 23:50:00,22.3,18.6,30.06,NE,45,0.0,0.0,86,0.00,,,0.00,VWS V14.01,2013-01-31 05:50:00,
2013-01-30 23:55:00,22.3,18.6,30.06,NE,45,0.0,0.0,86,0.00,,,0.00,VWS V14.01,2013-01-31 05:55:00,